• Join FlightAware (Why Join?)
  • Login
  • US Flag 
10:41PM EDT


 

Airport Tracker/Info


-or-


 

Live Flight TrackerFlight Track Log ✈ UAL532 ✈ 04-Jun-2013 ✈ KLAX - KEWR

Flight Track Log - Related Links

Times and Time Zones

All times are in EDT time to prevent confusion due to time zone crossing. See the UAL532 flight status page for this flight to view local times or setup timezone preferences in your user account.

Time Position Orientation Groundspeed Altitude Reporting Facility
EDT Latitude Longitude Course Direction KTS MPH feet Rate Location/Type
02:28AM 33.9328 -118.4481 116° Southeast 186 214 1,700  Level Los Angeles Center
02:29AM 33.8881 -118.5106 229° Southwest 247 284 4,100 2,280 Climbing Los Angeles Center
02:30AM 33.8194 -118.5172 185° South 269 310 6,300 2,400 Climbing Los Angeles Center
02:31AM 33.7436 -118.5217 183° South 276 318 9,000 2,040 Climbing Los Angeles Center
02:33AM 33.6800 -118.4769 150° Southeast 303 349 10,500 1,860 Climbing Los Angeles Center
02:34AM 33.6348 -118.3370 116° Southeast  Level FlightAware Approximate
02:34AM 33.6528 -118.3742 108° East 329 379 12,800  Level Los Angeles Center
02:35AM 33.6469 -118.2394 93° East 350 403 15,100 1,980 Climbing Los Angeles Center
02:36AM 33.7125 -118.1464 50° Northeast 381 438 16,800 1,740 Climbing Los Angeles Center
02:37AM 33.7950 -118.0667 39° Northeast 386 444 18,700 1,740 Climbing Los Angeles Center
02:38AM 33.8806 -117.9825 39° Northeast 399 459 20,400 1,680 Climbing Los Angeles Center
02:39AM 33.9689 -117.8942 40° Northeast 411 473 22,100 1,680 Climbing Los Angeles Center
02:40AM 34.0603 -117.8047 39° Northeast 424 488 23,800 1,440 Climbing Los Angeles Center
02:41AM 34.1467 -117.7011 45° Northeast 437 503 25,100 1,320 Climbing Los Angeles Center
02:42AM 34.2297 -117.5881 48° Northeast 449 517 26,500 1,320 Climbing Los Angeles Center
02:43AM 34.3158 -117.4711 48° Northeast 463 533 27,800 1,260 Climbing Los Angeles Center
02:44AM 34.4133 -117.3372 49° Northeast 471 542 29,100 1,140 Climbing Los Angeles Center
02:45AM 34.5000 -117.2161 49° Northeast 478 550 30,200 1,080 Climbing Los Angeles Center
02:46AM 34.5894 -117.0928 49° Northeast 487 560 31,300 1,020 Climbing Los Angeles Center
02:47AM 34.6792 -116.9708 48° Northeast 489 563 32,300 1,140 Climbing Los Angeles Center
02:48AM 34.7697 -116.8458 49° Northeast 494 568 33,600 1,140 Climbing Los Angeles Center
02:49AM 34.8589 -116.7222 49° Northeast 490 564 34,600 900 Climbing Los Angeles Center
02:50AM 34.9475 -116.5989 49° Northeast 487 560 35,500 840 Climbing Los Angeles Center
02:51AM 35.0394 -116.4794 47° Northeast 484 557 36,400 720 Climbing Los Angeles Center
02:52AM 35.1336 -116.3625 45° Northeast 485 558 37,000 240 Climbing Los Angeles Center
02:53AM 35.2283 -116.2436 46° Northeast 490 564 37,000  Level Los Angeles Center
02:54AM 35.3192 -116.1247 47° Northeast 481 554 37,000  Level Los Angeles Center
02:55AM 35.4122 -116.0081 46° Northeast 481 554 37,000  Level Los Angeles Center
02:56AM 35.5192 -115.8783 45° Northeast 481 554 37,000  Level Los Angeles Center
02:57AM 35.6111 -115.7606 46° Northeast 478 550 37,000  Level Los Angeles Center
02:58AM 35.7014 -115.6422 47° Northeast 475 547 37,000  Level Los Angeles Center
02:59AM 35.7928 -115.5258 46° Northeast 474 545 37,000  Level Los Angeles Center
03:00AM 35.8828 -115.4111 46° Northeast 471 542 37,000  Level Los Angeles Center
03:01AM 35.9719 -115.2961 46° Northeast 468 539 37,000  Level Los Angeles Center
03:02AM 36.0583 -115.1825 47° Northeast 459 528 37,000  Level Los Angeles Center
03:03AM 36.1475 -115.0697 46° Northeast 462 532 37,000  Level Los Angeles Center
03:04AM 36.2364 -114.9578 45° Northeast 460 529 37,000  Level Los Angeles Center
03:05AM 36.3247 -114.8461 46° Northeast 457 526 37,000  Level Los Angeles Center
03:06AM 36.4133 -114.7342 45° Northeast 457 526 37,000  Level Los Angeles Center
03:07AM 36.4994 -114.6211 47° Northeast 454 522 37,000  Level Los Angeles Center
03:08AM 36.5861 -114.5083 46° Northeast 452 520 37,000  Level Los Angeles Center
03:09AM 36.6742 -114.3936 46° Northeast 457 526 37,000  Level Los Angeles Center
03:10AM 36.7600 -114.2775 47° Northeast 457 526 37,000  Level Los Angeles Center
03:11AM 36.8278 -114.1378 59° Northeast 469 540 37,000  Level Los Angeles Center
03:12AM 36.8950 -113.9989 59° Northeast 469 540 37,000  Level Los Angeles Center
03:13AM 36.9669 -113.8506 59° Northeast 469 540 37,000  Level Los Angeles Center
03:14AM 37.0333 -113.7111 59° Northeast 468 539 37,000  Level Los Angeles Center
03:15AM 37.1000 -113.5717 59° Northeast 468 539 37,000  Level Los Angeles Center
03:16AM 37.1653 -113.4333 59° Northeast 465 535 37,000  Level Los Angeles Center
03:17AM 37.2314 -113.2939 59° Northeast 466 536 37,000  Level Los Angeles Center
03:18AM 37.2964 -113.1569 59° Northeast 462 532 37,000  Level Los Angeles Center
03:19AM 37.3597 -113.0200 60° Northeast 459 528 37,000  Level Los Angeles Center
03:20AM 37.4200 -112.8844 61° Northeast 452 520 37,000  Level Los Angeles Center
03:21AM 37.4936 -112.7239 60° Northeast 453 521 37,000  Level Los Angeles Center
03:22AM 37.5558 -112.5900 60° Northeast 452 520 37,000  Level Los Angeles Center
03:23AM 37.6189 -112.4558 59° Northeast 450 518 37,000  Level Los Angeles Center
03:24AM 37.6817 -112.3217 59° Northeast 447 514 37,000  Level Los Angeles Center
03:25AM 37.7525 -112.1911 56° Northeast 451 519 37,000  Level Los Angeles Center
03:26AM 37.8267 -112.0658 53° Northeast 448 516 37,000  Level Los Angeles Center
03:27AM 37.8708 -111.9886 54° Northeast 450 518 37,000  Level Denver Center
03:27AM 37.8994 -111.9389 54° Northeast 448 516 37,000  Level Salt Lake Center
03:28AM 37.9731 -111.8106 54° Northeast 450 518 37,000  Level Salt Lake Center
03:29AM 38.0464 -111.6825 54° Northeast 450 518 37,000  Level Salt Lake Center
03:30AM 38.1219 -111.5547 53° Northeast 454 522 37,000  Level Salt Lake Center
03:31AM 38.1950 -111.4256 54° Northeast 451 519 37,000  Level Salt Lake Center
03:32AM 38.2689 -111.2961 54° Northeast 453 521 37,000  Level Salt Lake Center
03:33AM 38.3567 -111.1417 54° Northeast 451 519 37,000  Level Salt Lake Center
03:34AM 38.4300 -111.0111 54° Northeast 452 520 37,000  Level Salt Lake Center
03:35AM 38.4994 -110.8825 55° Northeast 450 518 37,000  Level Salt Lake Center
03:36AM 38.5686 -110.7594 54° Northeast 447 514 37,000  Level Salt Lake Center
03:37AM 38.6389 -110.6342 54° Northeast 451 519 37,000  Level Salt Lake Center
03:38AM 38.6839 -110.5497 56° Northeast 449 517 37,000  Level Denver Center
03:39AM 38.7522 -110.4244 55° Northeast 449 517 37,000  Level Denver Center
03:39AM 38.7869 -110.3628 54° Northeast 448 516 37,000  Level Salt Lake Center
03:40AM 38.8556 -110.2378 55° Northeast 448 516 37,000  Level Salt Lake Center
03:41AM 38.8978 -110.1519 58° Northeast 445 512 37,000  Level Denver Center
03:41AM 38.9344 -110.0919 52° Northeast 445 512 37,000  Level Salt Lake Center
03:42AM 39.0022 -109.9669 55° Northeast 445 512 37,000  Level Salt Lake Center
03:43AM 39.0686 -109.8417 56° Northeast 444 511 37,000  Level Salt Lake Center
03:44AM 39.1361 -109.7164 55° Northeast 445 512 37,000  Level Salt Lake Center
03:45AM 39.2150 -109.5686 55° Northeast 448 516 37,000  Level Salt Lake Center
03:46AM 39.2475 -109.5031 57° Northeast 447 514 37,000  Level Denver Center
03:47AM 39.3250 -109.3558 56° Northeast 444 511 37,000  Level Denver Center
03:48AM 39.3936 -109.2283 55° Northeast 450 518 37,000  Level Denver Center
03:49AM 39.4603 -109.1014 56° Northeast 449 517 37,000  Level Denver Center
03:49AM 39.4947 -109.0386 55° Northeast 450 518 37,000  Level Salt Lake Center
03:50AM 39.5611 -108.9103 56° Northeast 449 517 37,000  Level Salt Lake Center
03:51AM 39.6089 -108.8167 56° Northeast 449 517 37,000  Level Denver Center
03:52AM 39.6808 -108.6783 56° Northeast 460 529 37,000  Level Denver Center
03:53AM 39.7481 -108.5483 56° Northeast 455 524 37,000  Level Denver Center
03:54AM 39.8153 -108.4181 56° Northeast 453 521 37,000  Level Denver Center
03:55AM 39.8975 -108.2644 55° Northeast 461 531 37,000  Level Denver Center
03:56AM 39.9617 -108.1325 58° Northeast 449 517 37,000  Level Denver Center
03:57AM 40.0294 -107.9992 56° Northeast 461 531 37,000  Level Denver Center
03:58AM 40.0914 -107.8286 65° Northeast 469 540 37,000  Level Denver Center
03:59AM 40.1253 -107.6733 74° East 468 539 37,000  Level Denver Center
04:00AM 40.1603 -107.5181 74° East 466 536 37,000  Level Denver Center
04:01AM 40.1947 -107.3636 74° East 463 533 37,000  Level Denver Center
04:02AM 40.2364 -107.1822 73° East 465 535 37,000  Level Denver Center
04:03AM 40.2719 -107.0247 73° East 470 541 37,000  Level Denver Center
04:04AM 40.3067 -106.8678 74° East 469 540 37,000  Level Denver Center
04:05AM 40.3478 -106.6986 72° East 479 551 37,000  Level Denver Center
04:06AM 40.3853 -106.5303 74° East 480 552 37,000  Level Denver Center
04:07AM 40.4206 -106.3553 75° East 485 558 37,000  Level Denver Center
04:08AM 40.4628 -106.1650 74° East 486 559 37,000  Level Denver Center
04:09AM 40.4989 -105.9953 74° East 486 559 37,000  Level Denver Center
04:10AM 40.5356 -105.8225 74° East 489 563 37,000  Level Denver Center
04:11AM 40.5708 -105.6525 75° East 486 559 37,000  Level Denver Center
04:12AM 40.6072 -105.4806 74° East 484 557 37,000  Level Denver Center
04:13AM 40.6431 -105.3081 75° East 487 560 37,000  Level Denver Center
04:14AM 40.6789 -105.1367 75° East 487 560 37,000  Level Denver Center
04:15AM 40.7133 -104.9664 75° East 481 554 37,000  Level Denver Center
04:16AM 40.7467 -104.7894 76° East 492 566 37,000  Level Denver Center
04:17AM 40.7808 -104.6181 75° East 486 559 37,000  Level Denver Center
04:18AM 40.8167 -104.4422 75° East 493 567 37,000  Level Denver Center
04:19AM 40.8508 -104.2647 76° East 497 572 37,000 -120 Level Denver Center
04:20AM 40.8861 -104.0875 75° East 498 573 36,800 -720 Descending Denver Center
04:21AM 40.9206 -103.9108 75° East 496 571 35,600 -1,200 Descending Denver Center
04:22AM 40.9536 -103.7339 76° East 497 572 34,400 -1,200 Descending Denver Center
04:23AM 40.9878 -103.5572 76° East 502 578 33,200 -720 Descending Denver Center
04:24AM 41.0219 -103.3858 75° East 505 581 33,000 -120 Descending Denver Center
04:25AM 41.0614 -103.1817 76° East 513 590 33,000  Level Denver Center
04:26AM 41.0936 -103.0056 76° East 515 593 33,000  Level Denver Center
04:27AM 41.1128 -102.8128 82° East 511 588 33,000  Level Denver Center
04:28AM 41.1256 -102.6333 85° East 510 587 33,000  Level Denver Center
04:29AM 41.1397 -102.4533 84° East 513 590 33,000  Level Denver Center
04:30AM 41.1558 -102.2428 84° East 513 590 33,000  Level Denver Center
04:31AM 41.1694 -102.0619 84° East 515 593 33,000  Level Denver Center
04:32AM 41.1803 -101.8811 85° East 515 593 33,000  Level Denver Center
04:33AM 41.1950 -101.6686 85° East 516 594 33,000  Level Denver Center
04:34AM 41.2075 -101.4858 85° East 518 596 33,000  Level Denver Center
04:35AM 41.2203 -101.3025 85° East 518 596 33,000  Level Denver Center
04:36AM 41.2336 -101.1172 84° East 523 602 33,000  Level Denver Center
04:37AM 41.2469 -100.9003 85° East 524 603 33,000  Level Denver Center
04:38AM 41.2594 -100.7142 85° East 524 603 33,000  Level Denver Center
04:39AM 41.2694 -100.5294 86° East 520 598 33,000  Level Denver Center
04:40AM 41.2806 -100.3464 85° East 518 596 33,000  Level Denver Center
04:41AM 41.2922 -100.1306 86° East 521 600 33,000  Level Denver Center
04:42AM 41.3017 -99.9475 86° East 519 597 33,000  Level Denver Center
04:43AM 41.3108 -99.7636 86° East 520 598 33,000  Level Denver Center
04:44AM 41.3197 -99.5811 86° East 518 596 33,000  Level Denver Center
04:45AM 41.3253 -99.4800 86° East 520 598 33,000  Level Minneapolis Center
04:45AM 41.3311 -99.3636 86° East 521 600 33,000  Level Denver Center
04:46AM 41.3406 -99.1689 86° East 524 603 33,000  Level Denver Center
04:47AM 41.3492 -99.0147 86° East 520 598 33,000  Level Denver Center
04:48AM 41.3533 -98.8697 88° East 521 600 33,000 660 Level Minneapolis Center
04:49AM 41.3622 -98.6769 86° East 521 600 34,100 1,380 Climbing Minneapolis Center
04:50AM 41.3706 -98.4844 87° East 522 601 35,800 1,380 Climbing Minneapolis Center
04:51AM 41.3781 -98.3161 87° East 514 592 37,000 540 Climbing Minneapolis Center
04:52AM 41.3850 -98.1314 87° East 501 577 37,000  Level Minneapolis Center
04:53AM 41.3911 -97.9256 88° East 506 582 37,000  Level Minneapolis Center
04:54AM 41.3967 -97.7331 88° East 516 594 37,000  Level Minneapolis Center
04:55AM 41.4022 -97.5378 88° East 525 604 37,000  Level Minneapolis Center
04:56AM 41.4075 -97.3442 88° East 524 603 37,000  Level Minneapolis Center
04:57AM 41.4114 -97.1514 88° East 523 602 37,000  Level Minneapolis Center
04:58AM 41.4144 -96.9586 89° East 520 598 37,000  Level Minneapolis Center
04:59AM 41.4175 -96.7689 89° East 516 594 37,000  Level Minneapolis Center
05:00AM 41.4203 -96.5789 89° East 513 590 37,000  Level Minneapolis Center
05:01AM 41.4233 -96.3897 89° East 511 588 37,000  Level Minneapolis Center
05:02AM 41.4250 -96.1753 89° East 517 595 37,000  Level Minneapolis Center
05:03AM 41.4292 -95.9858 88° East 512 589 37,000  Level Minneapolis Center
05:04AM 41.4342 -95.7942 88° East 516 594 37,000  Level Minneapolis Center
05:05AM 41.4369 -95.6072 89° East 519 597 37,000  Level Minneapolis Center
05:06AM 41.4389 -95.4122 89° East 524 603 37,000  Level Minneapolis Center
05:07AM 41.4394 -95.2189 90° East 522 601 37,000  Level Minneapolis Center
05:08AM 41.4403 -95.0247 90° East 524 603 37,000  Level Minneapolis Center
05:09AM 41.4408 -94.8275 90° East 530 610 37,000  Level Minneapolis Center
05:10AM 41.4406 -94.6308 90° East 532 612 37,000  Level Minneapolis Center
05:11AM 41.4406 -94.4342 90° East 532 612 37,000  Level Minneapolis Center
05:12AM 41.4411 -94.2367 90° East 533 613 37,000  Level Minneapolis Center
05:13AM 41.4397 -94.0469 90° East 529 609 37,000  Level Minneapolis Center
05:14AM 41.4381 -93.8506 91° East 532 612 37,000  Level Minneapolis Center
05:15AM 41.4358 -93.6564 91° East 530 610 37,000  Level Minneapolis Center
05:16AM 41.4450 -93.4603 86° East 532 612 37,000  Level Minneapolis Center
05:17AM 41.4539 -93.2686 86° East 524 603 37,000  Level Minneapolis Center
05:18AM 41.4633 -93.0764 86° East 522 601 37,000  Level Minneapolis Center
05:19AM 41.4708 -92.8847 87° East 521 600 37,000  Level Minneapolis Center
05:20AM 41.4800 -92.6925 86° East 522 601 37,000  Level Minneapolis Center
05:21AM 41.4883 -92.5014 87° East 518 596 37,000  Level Chicago Center
05:22AM 41.4953 -92.3294 87° East 516 594 37,000  Level Chicago Center
05:23AM 41.5019 -92.1411 87° East 515 593 37,000  Level Chicago Center
05:24AM 41.5094 -91.9525 87° East 515 593 37,000  Level Chicago Center
05:25AM 41.5147 -91.7639 88° East 515 593 37,000  Level Chicago Center
05:26AM 41.5200 -91.5389 88° East 513 590 37,000  Level Chicago Center
05:27AM 41.5228 -91.3492 89° East 516 594 37,000  Level Chicago Center
05:28AM 41.5275 -91.1614 88° East 514 592 37,000  Level Chicago Center
05:29AM 41.5325 -90.9717 88° East 517 595 37,000  Level Chicago Center
05:30AM 41.5356 -90.7828 89° East 516 594 37,000  Level Chicago Center
05:31AM 41.5386 -90.5767 89° East 517 595 37,000  Level Chicago Center
05:32AM 41.5397 -90.3822 89° East 521 600 37,000  Level Chicago Center
05:33AM 41.5414 -90.1883 89° East 520 598 37,000  Level Chicago Center
05:34AM 41.5419 -89.9917 90° East 526 605 37,000  Level Chicago Center
05:35AM 41.5444 -89.7961 89° East 525 604 37,000  Level Chicago Center
05:36AM 41.5456 -89.6025 89° East 523 602 37,000  Level Chicago Center
05:37AM 41.5442 -89.4150 91° East 507 583 37,000  Level Chicago Center
05:38AM 41.5447 -89.2272 90° East 507 583 37,000  Level Chicago Center
05:39AM 41.5481 -89.0400 89° East 508 585 37,000  Level Chicago Center
05:40AM 41.5467 -88.8536 91° East 503 579 37,000  Level Chicago Center
05:41AM 41.5461 -88.6667 90° East 505 581 37,000  Level Chicago Center
05:42AM 41.5461 -88.4792 90° East 504 580 37,000  Level Chicago Center
05:43AM 41.5508 -88.2900 88° East 506 582 37,000  Level Chicago Center
05:44AM 41.5725 -88.1008 81° East 506 582 37,000  Level Chicago Center
05:45AM 41.5958 -87.9119 81° East 505 581 37,000  Level Chicago Center
05:46AM 41.6172 -87.7269 81° East 503 579 37,000  Level Chicago Center
05:47AM 41.6375 -87.5419 82° East 503 579 37,000  Level Chicago Center
05:48AM 41.6583 -87.3575 81° East 502 578 37,000  Level Chicago Center
05:49AM 41.6775 -87.1728 82° East 503 579 37,000  Level Chicago Center
05:50AM 41.6781 -86.9858 90° East 504 580 37,000  Level Chicago Center
05:51AM 41.6842 -86.8003 87° East 503 579 37,000  Level Chicago Center
05:52AM 41.6869 -86.6258 89° East 502 578 37,000  Level Chicago Center
05:53AM 41.6917 -86.4394 88° East 501 577 37,000  Level Chicago Center
05:54AM 41.6964 -86.2542 88° East 501 577 37,000  Level Chicago Center
05:55AM 41.6975 -86.0678 89° East 501 577 37,000  Level Chicago Center
05:56AM 41.7000 -85.8836 89° East 496 571 37,000  Level Chicago Center
05:57AM 41.7039 -85.6992 88° East 497 572 37,000  Level Chicago Center
05:58AM 41.7053 -85.4908 89° East 497 572 37,000  Level Chicago Center
05:59AM 41.7064 -85.3078 89° East 495 570 37,000  Level Chicago Center
06:00AM 41.7103 -85.1269 88° East 512 589 37,000  Level Chicago Center
06:01AM 41.7111 -84.9422 90° East 497 572 37,000  Level Chicago Center
06:02AM 41.7103 -84.7589 90° East 494 568 37,000  Level Chicago Center
06:03AM 41.7094 -84.5733 90° East 499 574 37,000  Level Chicago Center
06:04AM 41.7081 -84.3894 91° East 496 571 37,000  Level Chicago Center
06:05AM 41.7069 -84.2033 90° East 500 575 37,000  Level Chicago Center
06:06AM 41.7069 -84.0189 90° East 498 573 37,000  Level Chicago Center
06:07AM 41.7067 -83.8342 90° East 498 573 37,000  Level Chicago Center
06:08AM 41.7014 -83.5953 92° East 495 570 37,000  Level Cleveland Center
06:09AM 41.7000 -83.4089 91° East 500 575 37,000  Level Cleveland Center
06:10AM 41.6964 -83.2139 91° East 500 575 37,000  Level Cleveland Center
06:11AM 41.6942 -83.0219 91° East 511 588 37,000  Level Cleveland Center
06:12AM 41.6942 -82.8244 90° East 517 595 37,000  Level Cleveland Center
06:13AM 41.6894 -82.6353 92° East 517 595 37,000  Level Cleveland Center
06:14AM 41.6864 -82.4406 91° East 517 595 37,000  Level Cleveland Center
06:15AM 41.6831 -82.2486 91° East 517 595 37,000  Level Cleveland Center
06:16AM 41.6794 -82.0539 91° East 522 601 37,000  Level Cleveland Center
06:17AM 41.6756 -81.8619 91° East 513 590 37,000  Level Cleveland Center
06:18AM 41.6733 -81.6867 91° East 518 596 37,000  Level Cleveland Center
06:19AM 41.6667 -81.4975 93° East 518 596 37,000  Level Cleveland Center
06:20AM 41.6597 -81.3058 93° East 518 596 37,000  Level Cleveland Center
06:21AM 41.6525 -81.0944 93° East 518 596 37,000  Level Cleveland Center
06:22AM 41.6469 -80.9056 92° East 518 596 37,000  Level Cleveland Center
06:23AM 41.6408 -80.7108 92° East 518 596 37,000  Level Cleveland Center
06:24AM 41.6347 -80.5192 92° East 518 596 37,000  Level Cleveland Center
06:25AM 41.6283 -80.3664 93° East 518 596 37,000  Level Cleveland Center
06:26AM 41.6236 -80.1553 92° East 518 596 37,000  Level Cleveland Center
06:27AM 41.6122 -79.9444 94° East 518 596 37,000  Level Cleveland Center
06:28AM 41.6025 -79.7500 94° East 518 596 37,000  Level Cleveland Center
06:29AM 41.5864 -79.5617 96° East 518 596 37,000  Level Cleveland Center
06:30AM 41.5722 -79.3675 96° East 518 596 37,000  Level Cleveland Center
06:31AM 41.5553 -79.1736 97° East 518 596 37,000  Level Cleveland Center
06:32AM 41.5403 -78.9769 96° East 518 596 37,000  Level Cleveland Center
06:33AM 41.5228 -78.7858 97° East 518 596 37,000 -600 Level Cleveland Center
06:34AM 41.5069 -78.5894 96° East 518 596 35,800 -1,080 Descending Cleveland Center
06:36AM 41.4719 -78.2056 97° East 527 606 33,700 -900 Descending New York Center
06:37AM 41.4544 -78.0181 97° East 522 601 33,000 -1,020 Descending New York Center
06:38AM 41.4386 -77.8308 96° East 517 595 31,700 -1,020 Descending New York Center
06:39AM 41.4206 -77.6406 97° East 512 589 31,000 -360 Descending New York Center
06:40AM 41.3875 -77.4547 103° East 512 589 31,000 -840 Level New York Center
06:41AM 41.3556 -77.2775 103° East 512 589 29,400 -1,560 Descending New York Center
06:42AM 41.3261 -77.0894 102° East 512 589 28,000 -1,500 Descending New York Center
06:43AM 41.2922 -76.9039 104° East 519 597 26,500 -1,740 Descending New York Center
06:44AM 41.2600 -76.7161 103° East 519 597 24,500 -2,280 Descending New York Center
06:45AM 41.2272 -76.5367 104° East 519 597 22,000 -2,580 Descending New York Center
06:46AM 41.1942 -76.3600 104° East 508 585 19,400 -1,980 Descending New York Center
06:47AM 41.1686 -76.1869 101° East 483 556 18,100 -720 Descending New York Center
06:48AM 41.1364 -76.0275 105° East 455 524 18,000 -60 Descending New York Center
06:49AM 41.0936 -75.8644 109° East 426 490 18,000 -240 Level New York Center
06:50AM 41.0519 -75.7153 110° East 426 490 17,600 -1,320 Descending New York Center
06:51AM 41.0119 -75.5722 110° East 426 490 15,400 -2,220 Descending New York Center
06:52AM 40.9717 -75.4319 111° Southeast 414 476 13,300 -2,220 Descending New York Center
06:53AM 40.9353 -75.3003 110° East 396 456 10,900 -1,920 Descending New York Center
06:54AM 40.9078 -75.1969 109° East 351 404 9,500 -1,380 Descending New York Center
06:55AM 40.8783 -75.0936 111° Southeast 313 360 8,200 -1,260 Descending New York Center
06:56AM 40.8467 -74.9872 111° Southeast 290 334 7,000 -600 Descending New York Center
06:57AM 40.8372 -74.9044 99° East 284 327 7,000 -120 Level New York Center
06:58AM 40.8186 -74.7800 101° East 284 327 6,800 -600 Descending New York Center
06:59AM 40.7858 -74.6983 118° Southeast 279 321 5,900 -420 Descending New York Center
07:00AM 40.7125 -74.6478 152° Southeast 273 314 6,000 -420 Climbing New York Center
07:01AM 40.6667 -74.6167 153° Southeast 254 292 5,200 -600 Descending New York TRACON
07:02AM 40.6167 -74.5500 135° Southeast 257 296 5,000 -240 Descending New York TRACON
07:03AM 40.5667 -74.4833 135° Southeast 252 290 4,800 -600 Descending New York TRACON
07:04AM 40.5333 -74.4000 118° Southeast 240 276 3,900 -960 Descending New York TRACON
07:05AM 40.5333 -74.3333 90° East 223 257 3,000 -900 Descending New York TRACON